Time;durP1;ratioP1;P1;durP2;ratioP2;P2;SDS_P1;SDS_P2;PMS_P1;PMS_P2;Temp;Humidity;BMP_temperature;BMP_pressure;BME280_temperature;BME280_humidity;BME280_pressure;Samples;Min_cycle;Max_cycle;Signal;HPM_P1;HPM_P2
2023/11/10 00:04:01;;;;;;;;;;;6.30;99.90;;;;;;21387214;27;20014;-76
2023/11/10 00:14:01;;;;;;;;;;;6.30;99.90;;;;;;21374735;27;20006;-76
2023/11/10 00:24:05;;;;;;;;;;;6.40;99.90;;;;;;21375423;27;19950;-76
2023/11/10 00:34:06;;;;;;;;;;;6.40;99.90;;;;;;21364355;27;20067;-76
2023/11/10 00:44:06;;;;;;;;;;;6.40;99.90;;;;;;21378991;27;19958;-77
2023/11/10 00:54:10;;;;;;;;;;;6.30;99.90;;;;;;21332346;27;19918;-76
2023/11/10 01:04:11;;;;;;;;;;;6.30;99.90;;;;;;21347790;27;20682;-76
2023/11/10 01:14:11;;;;;;;;;;;6.30;99.90;;;;;;21378045;27;19954;-77
2023/11/10 01:24:12;;;;;;;;;;;6.30;99.90;;;;;;21362592;27;19915;-77
2023/11/10 01:34:13;;;;;;;;;;;6.30;99.90;;;;;;21352951;27;20356;-76
2023/11/10 01:44:14;;;;;;;;;;;6.50;99.90;;;;;;21366217;27;19967;-76
2023/11/10 01:54:16;;;;;;;;;;;6.70;99.90;;;;;;21341874;27;20029;-77
2023/11/10 02:04:17;;;;;;;;;;;6.80;99.90;;;;;;21348255;27;19983;-76
2023/11/10 02:14:17;;;;;;;;;;;6.60;99.90;;;;;;21361566;27;19911;-76
2023/11/10 02:24:20;;;;;;;;;;;6.50;99.90;;;;;;21348198;27;19914;-75
2023/11/10 02:34:20;;;;;;;;;;;6.50;99.90;;;;;;21345024;27;19922;-76
2023/11/10 02:44:26;;;;;;;;;;;6.50;99.90;;;;;;21371158;27;19919;-76
2023/11/10 02:54:27;;;;;;;;;;;6.30;99.90;;;;;;21363462;27;19917;-77
2023/11/10 03:04:27;;;;;;;;;;;6.40;99.90;;;;;;21367754;27;19942;-76
2023/11/10 03:14:28;;;;;;;;;;;6.50;99.90;;;;;;21355275;27;19911;-76
2023/11/10 03:24:29;;;;;;;;;;;6.40;99.90;;;;;;21351925;27;19953;-75
2023/11/10 03:34:30;;;;;;;;;;;6.40;99.90;;;;;;21380163;27;19915;-76
2023/11/10 03:44:31;;;;;;;;;;;6.30;99.90;;;;;;21371177;27;19991;-76
2023/11/10 03:54:32;;;;;;;;;;;6.20;99.90;;;;;;21366877;27;20346;-76
2023/11/10 04:04:33;;;;;;;;;;;6.10;99.90;;;;;;21372465;27;19922;-76
2023/11/10 04:14:35;;;;;;;;;;;6.10;99.90;;;;;;21356207;27;19915;-76
2023/11/10 04:24:36;;;;;;;;;;;6.10;99.90;;;;;;21378598;27;19921;-76
2023/11/10 04:34:36;;;;;;;;;;;6.10;99.90;;;;;;21370235;27;20385;-76
2023/11/10 04:44:37;;;;;;;;;;;6.10;99.90;;;;;;21365720;27;19973;-76
2023/11/10 04:54:41;;;;;;;;;;;6.10;99.90;;;;;;21374501;27;19911;-75
2023/11/10 05:04:44;;;;;;;;;;;6.10;99.90;;;;;;21357592;27;20378;-75
2023/11/10 05:14:44;;;;;;;;;;;6.10;99.90;;;;;;21350476;27;20394;-77
2023/11/10 05:24:45;;;;;;;;;;;6.20;99.90;;;;;;21350681;27;20068;-77
2023/11/10 05:34:46;;;;;;;;;;;6.20;99.90;;;;;;21330137;27;19918;-77
2023/11/10 05:44:47;;;;;;;;;;;6.20;99.90;;;;;;21335446;27;20293;-77
2023/11/10 05:54:47;;;;;;;;;;;6.20;99.90;;;;;;21337064;27;20015;-77
2023/11/10 06:04:48;;;;;;;;;;;6.20;99.90;;;;;;21331752;27;19915;-78
2023/11/10 06:14:49;;;;;;;;;;;6.20;99.90;;;;;;21329490;27;20370;-77
2023/11/10 06:24:49;;;;;;;;;;;6.20;99.90;;;;;;21359840;27;20326;-77
2023/11/10 06:34:51;;;;;;;;;;;6.20;99.90;;;;;;21351113;27;20434;-77
2023/11/10 06:44:51;;;;;;;;;;;6.20;99.90;;;;;;21351309;27;19992;-77
2023/11/10 06:54:52;;;;;;;;;;;6.20;99.90;;;;;;21360591;27;19915;-77
2023/11/10 07:04:53;;;;;;;;;;;6.30;99.90;;;;;;21360130;27;19915;-78
2023/11/10 07:14:53;;;;;;;;;;;6.30;99.90;;;;;;21348318;27;19943;-77
2023/11/10 07:24:55;;;;;;;;;;;6.40;99.90;;;;;;21347120;27;19958;-77
2023/11/10 07:34:55;;;;;;;;;;;6.50;99.90;;;;;;21347528;27;19915;-77
2023/11/10 07:44:56;;;;;;;;;;;6.40;99.90;;;;;;21350467;27;19919;-78
2023/11/10 07:54:57;;;;;;;;;;;6.50;99.90;;;;;;21345225;27;19911;-77
2023/11/10 08:04:58;;;;;;;;;;;6.60;99.90;;;;;;21341422;27;19919;-76
2023/11/10 08:14:59;;;;;;;;;;;6.80;99.90;;;;;;21344426;27;19911;-78
2023/11/10 08:25:02;;;;;;;;;;;7.00;99.90;;;;;;21357601;27;20316;-78
2023/11/10 08:35:03;;;;;;;;;;;7.20;99.90;;;;;;21337140;27;20372;-79
2023/11/10 08:45:05;;;;;;;;;;;7.20;99.90;;;;;;21348399;27;19959;-78
2023/11/10 08:55:07;;;;;;;;;;;7.20;99.90;;;;;;21382082;27;19911;-78
2023/11/10 09:05:10;;;;;;;;;;;7.10;99.90;;;;;;21334780;27;19945;-77
2023/11/10 09:15:14;;;;;;;;;;;7.10;99.90;;;;;;21343318;27;19911;-77
2023/11/10 09:25:20;;;;;;;;;;;7.30;99.90;;;;;;21334511;27;19966;-78
2023/11/10 09:35:20;;;;;;;;;;;7.40;99.90;;;;;;21338055;27;20009;-77
2023/11/10 09:45:22;;;;;;;;;;;7.50;99.90;;;;;;21362484;27;19961;-76
2023/11/10 09:55:23;;;;;;;;;;;7.60;99.90;;;;;;21368795;27;19938;-77
2023/11/10 10:05:24;;;;;;;;;;;7.70;99.90;;;;;;21376536;27;19958;-76
2023/11/10 10:15:28;;;;;;;;;;;7.70;99.90;;;;;;21376978;27;20296;-76
2023/11/10 10:25:29;;;;;;;;;;;7.70;99.90;;;;;;21363211;27;19922;-76
2023/11/10 10:35:29;;;;;;;;;;;7.90;99.90;;;;;;21358368;27;20292;-76
2023/11/10 10:45:33;;;;;;;;;;;8.10;99.90;;;;;;21343380;27;19961;-77
2023/11/10 10:55:34;;;;;;;;;;;9.80;99.90;;;;;;21359297;27;19949;-77
2023/11/10 11:05:53;;;;;;;;;;;10.80;99.90;;;;;;21360431;27;19938;-77
2023/11/10 11:16:03;;;;;;;;;;;11.50;99.90;;;;;;21361037;27;19911;-76
2023/11/10 11:26:04;;;;;;;;;;;12.00;99.90;;;;;;21353633;27;19914;-77
2023/11/10 11:36:10;;;;;;;;;;;10.80;99.90;;;;;;21359829;27;19923;-77
2023/11/10 11:46:11;;;;;;;;;;;10.20;99.90;;;;;;21367923;27;19923;-76
2023/11/10 11:56:13;;;;;;;;;;;9.50;99.90;;;;;;21361507;27;20066;-77
2023/11/10 12:06:14;;;;;;;;;;;9.90;99.90;;;;;;21352583;27;19915;-77
2023/11/10 12:16:15;;;;;;;;;;;9.90;99.90;;;;;;21376750;27;20369;-77
2023/11/10 12:26:16;;;;;;;;;;;10.60;99.90;;;;;;21332264;27;19922;-77
2023/11/10 12:36:18;;;;;;;;;;;10.00;99.90;;;;;;21366386;27;20366;-77
2023/11/10 12:46:20;;;;;;;;;;;10.50;99.90;;;;;;21323102;27;20392;-77
2023/11/10 12:56:21;;;;;;;;;;;11.00;99.90;;;;;;21348867;27;19911;-78
2023/11/10 13:06:22;;;;;;;;;;;11.90;99.90;;;;;;21350322;27;19915;-78
2023/11/10 13:16:23;;;;;;;;;;;11.80;99.90;;;;;;21372353;27;19922;-77
2023/11/10 13:26:24;;;;;;;;;;;11.60;99.90;;;;;;21391625;27;19922;-76
2023/11/10 13:36:25;;;;;;;;;;;11.10;99.90;;;;;;21386241;27;20377;-77
2023/11/10 13:46:25;;;;;;;;;;;10.70;99.90;;;;;;21359733;27;19969;-77
2023/11/10 13:56:26;;;;;;;;;;;10.40;99.90;;;;;;21373673;27;19911;-77
2023/11/10 14:06:27;;;;;;;;;;;10.60;99.90;;;;;;21396040;27;19929;-77
2023/11/10 14:16:27;;;;;;;;;;;11.50;99.90;;;;;;21382995;27;20294;-77
2023/11/10 14:26:28;;;;;;;;;;;11.30;99.90;;;;;;21385818;27;19962;-78
2023/11/10 14:36:29;;;;;;;;;;;10.60;99.90;;;;;;21405143;27;19938;-76
2023/11/10 14:46:32;;;;;;;;;;;10.00;99.90;;;;;;21405950;27;19940;-76
2023/11/10 14:56:33;;;;;;;;;;;10.30;99.90;;;;;;21390410;27;19950;-77
2023/11/10 15:06:36;;;;;;;;;;;10.60;99.90;;;;;;21412273;27;19996;-77
2023/11/10 15:16:39;;;;;;;;;;;11.10;99.90;;;;;;21351231;27;19911;-77
2023/11/10 15:26:40;;;;;;;;;;;10.50;99.90;;;;;;21348247;27;19915;-76
2023/11/10 15:36:50;;;;;;;;;;;9.70;99.90;;;;;;21329180;27;19914;-76
2023/11/10 15:46:51;;;;;;;;;;;9.30;99.90;;;;;;21349425;27;19915;-77
2023/11/10 15:56:53;;;;;;;;;;;9.10;99.90;;;;;;21349400;27;20282;-76
2023/11/10 16:06:53;;;;;;;;;;;9.00;99.90;;;;;;21348733;27;19919;-77
2023/11/10 16:16:54;;;;;;;;;;;8.90;99.90;;;;;;21346081;27;19948;-77
2023/11/10 16:26:55;;;;;;;;;;;8.70;99.90;;;;;;21341778;27;20343;-76
2023/11/10 16:36:56;;;;;;;;;;;8.60;99.90;;;;;;21342070;27;20378;-77
2023/11/10 16:46:57;;;;;;;;;;;8.50;99.90;;;;;;21381357;27;20006;-77
2023/11/10 16:56:58;;;;;;;;;;;8.30;99.90;;;;;;21389674;27;19957;-76
2023/11/10 17:06:58;;;;;;;;;;;8.10;99.90;;;;;;21399361;27;19914;-76
2023/11/10 17:17:01;;;;;;;;;;;7.90;99.90;;;;;;21408479;27;19915;-77
2023/11/10 17:27:01;;;;;;;;;;;7.70;99.90;;;;;;21389461;27;20001;-77
2023/11/10 17:37:02;;;;;;;;;;;7.70;99.90;;;;;;21402345;27;19954;-76
2023/11/10 17:47:03;;;;;;;;;;;7.60;99.90;;;;;;21406327;27;20368;-76
2023/11/10 17:57:04;;;;;;;;;;;7.70;99.90;;;;;;21401613;27;20266;-76
2023/11/10 18:07:08;;;;;;;;;;;7.60;99.90;;;;;;21361332;27;19942;-76
2023/11/10 18:17:08;;;;;;;;;;;7.50;99.90;;;;;;21386144;27;19934;-76
2023/11/10 18:27:09;;;;;;;;;;;7.00;99.90;;;;;;21409895;27;19923;-76
2023/11/10 18:37:10;;;;;;;;;;;7.30;99.90;;;;;;21232729;27;19911;-76
2023/11/10 18:47:10;;;;;;;;;;;7.50;99.90;;;;;;21254085;27;20360;-78
2023/11/10 18:57:11;;;;;;;;;;;7.60;99.90;;;;;;21309418;27;19918;-78
2023/11/10 19:07:12;;;;;;;;;;;7.80;99.90;;;;;;21311667;27;20397;-77
2023/11/10 19:17:14;;;;;;;;;;;7.80;99.90;;;;;;21323394;27;19918;-76
2023/11/10 19:27:15;;;;;;;;;;;7.80;99.90;;;;;;21325444;27;20282;-78
2023/11/10 19:37:15;;;;;;;;;;;7.80;99.90;;;;;;21321133;27;19923;-78
2023/11/10 19:47:17;;;;;;;;;;;8.00;99.90;;;;;;21304929;27;19919;-78
2023/11/10 19:57:17;;;;;;;;;;;8.10;99.90;;;;;;21338525;27;19954;-79
2023/11/10 20:07:20;;;;;;;;;;;8.20;99.90;;;;;;21339382;27;20405;-78
2023/11/10 20:17:21;;;;;;;;;;;8.20;99.90;;;;;;21315204;27;20339;-79
2023/11/10 20:27:21;;;;;;;;;;;8.20;99.90;;;;;;21333990;27;19950;-77
2023/11/10 20:37:22;;;;;;;;;;;8.30;99.90;;;;;;21307856;27;19911;-77
2023/11/10 20:47:23;;;;;;;;;;;8.40;99.90;;;;;;21308786;27;20558;-78
2023/11/10 20:57:23;;;;;;;;;;;8.30;99.90;;;;;;21259170;27;19944;-78
2023/11/10 21:07:25;;;;;;;;;;;8.10;99.90;;;;;;21256007;27;19960;-77
2023/11/10 21:17:26;;;;;;;;;;;8.00;99.90;;;;;;21236951;27;19994;-78
2023/11/10 21:27:27;;;;;;;;;;;7.90;99.90;;;;;;21239342;27;19943;-78
2023/11/10 21:37:31;;;;;;;;;;;7.50;99.90;;;;;;21207287;27;19963;-76
2023/11/10 21:47:34;;;;;;;;;;;7.30;99.90;;;;;;21204558;27;19917;-78
2023/11/10 21:57:37;;;;;;;;;;;7.10;99.90;;;;;;21190137;27;20405;-78
2023/11/10 22:07:37;;;;;;;;;;;7.10;99.90;;;;;;21195443;27;19911;-78
2023/11/10 22:17:38;;;;;;;;;;;7.00;99.90;;;;;;21196559;28;19960;-78
2023/11/10 22:27:40;;;;;;;;;;;6.90;99.90;;;;;;21191991;27;19912;-78
2023/11/10 22:37:41;;;;;;;;;;;6.80;99.90;;;;;;21175568;28;19916;-78
2023/11/10 22:47:43;;;;;;;;;;;6.90;99.90;;;;;;21194287;28;19977;-78
2023/11/10 22:57:44;;;;;;;;;;;6.90;99.90;;;;;;21187833;27;20424;-78
2023/11/10 23:07:48;;;;;;;;;;;6.90;99.90;;;;;;21190195;27;19915;-78
2023/11/10 23:17:51;;;;;;;;;;;6.90;99.90;;;;;;21201423;27;19970;-78
2023/11/10 23:27:51;;;;;;;;;;;6.90;99.90;;;;;;21178582;27;19918;-77
2023/11/10 23:37:52;;;;;;;;;;;7.10;99.90;;;;;;21259411;27;19915;-78
2023/11/10 23:47:53;;;;;;;;;;;7.30;99.90;;;;;;21252470;27;19918;-77
2023/11/10 23:57:53;;;;;;;;;;;7.60;99.90;;;;;;21265546;27;19928;-77
